Time;durP1;ratioP1;P1;durP2;ratioP2;P2;SDS_P1;SDS_P2;PMS_P1;PMS_P2;Temp;Humidity;BMP_temperature;BMP_pressure;BME280_temperature;BME280_humidity;BME280_pressure;Samples;Min_cycle;Max_cycle;Signal;HPM_P1;HPM_P2
2022/03/19 00:01:28;;;;;;;47.87;24.07;;;8.30;88.20;;;;;;5020629;28;21047;-48
2022/03/19 00:03:55;;;;;;;58.27;25.20;;;8.20;88.40;;;;;;5016520;28;20708;-49
2022/03/19 00:06:23;;;;;;;47.07;25.43;;;8.20;88.50;;;;;;5021387;28;20996;-49
2022/03/19 00:08:50;;;;;;;50.70;25.30;;;8.20;88.50;;;;;;5019062;28;20524;-49
2022/03/19 00:11:16;;;;;;;71.00;26.90;;;8.20;88.70;;;;;;5021735;28;20487;-48
2022/03/19 00:13:43;;;;;;;49.30;25.10;;;8.10;88.70;;;;;;5019032;28;20486;-48
2022/03/19 00:16:10;;;;;;;52.67;26.73;;;8.10;88.60;;;;;;5021235;28;20486;-48
2022/03/19 00:18:38;;;;;;;66.87;26.43;;;;;;;;;;5023924;28;21059;-48
2022/03/19 00:21:05;;;;;;;64.67;27.97;;;8.10;89.20;;;;;;5021994;28;20480;-48
2022/03/19 00:23:33;;;;;;;57.07;26.80;;;8.10;89.20;;;;;;5019227;28;20826;-48
2022/03/19 00:26:00;;;;;;;64.33;28.43;;;8.10;89.20;;;;;;5016706;28;20489;-47
2022/03/19 00:28:27;;;;;;;56.47;27.33;;;8.10;89.10;;;;;;5022292;28;20491;-47
2022/03/19 00:30:54;;;;;;;53.83;27.77;;;8.10;89.20;;;;;;5022768;28;21063;-47
2022/03/19 00:33:21;;;;;;;58.13;27.07;;;8.10;89.00;;;;;;5020304;28;20486;-48
2022/03/19 00:35:47;;;;;;;61.37;26.37;;;8.10;88.90;;;;;;5018064;28;20480;-48
2022/03/19 00:38:15;;;;;;;58.43;27.13;;;8.00;88.90;;;;;;5019880;28;20487;-48
2022/03/19 00:40:43;;;;;;;57.73;29.30;;;8.00;89.00;;;;;;5022236;28;20485;-48
2022/03/19 00:43:10;;;;;;;65.20;26.80;;;8.00;89.00;;;;;;5019029;28;20481;-47
2022/03/19 00:45:37;;;;;;;46.97;25.67;;;8.00;89.30;;;;;;5012656;28;20473;-48
2022/03/19 00:48:04;;;;;;;56.30;26.90;;;7.90;89.30;;;;;;5020733;28;20464;-47
2022/03/19 00:50:31;;;;;;;54.73;27.53;;;7.90;89.50;;;;;;5023342;28;21091;-47
2022/03/19 00:52:58;;;;;;;56.63;27.50;;;7.90;89.60;;;;;;5021828;28;20482;-47
2022/03/19 00:55:25;;;;;;;63.53;26.90;;;7.80;89.60;;;;;;5020781;28;20485;-48
2022/03/19 00:57:53;;;;;;;51.10;26.33;;;7.80;89.70;;;;;;5023443;28;20927;-48
2022/03/19 01:00:23;;;;;;;49.30;26.27;;;7.80;89.70;;;;;;5015327;28;20492;-47
2022/03/19 01:02:51;;;;;;;61.80;28.90;;;7.80;89.80;;;;;;5022411;28;20841;-47
2022/03/19 01:05:18;;;;;;;60.73;29.50;;;;;;;;;;5019666;28;20485;-48
2022/03/19 01:07:47;;;;;;;50.07;26.60;;;7.80;89.80;;;;;;5021980;28;20484;-48
2022/03/19 01:10:16;;;;;;;60.10;26.87;;;7.70;89.80;;;;;;5021057;28;20901;-47
2022/03/19 01:12:43;;;;;;;53.23;27.10;;;7.70;90.00;;;;;;5023227;28;20480;-48
2022/03/19 01:15:12;;;;;;;51.43;27.17;;;7.70;90.00;;;;;;5021082;28;20555;-48
2022/03/19 01:17:39;;;;;;;47.30;23.70;;;7.70;90.00;;;;;;5023738;28;20484;-49
2022/03/19 01:20:08;;;;;;;49.90;26.20;;;7.60;90.00;;;;;;5021053;28;20491;-48
2022/03/19 01:22:35;;;;;;;64.67;25.87;;;7.60;90.10;;;;;;5010898;28;20994;-47
2022/03/19 01:25:05;;;;;;;54.27;27.70;;;7.60;90.10;;;;;;5024921;28;20481;-48
2022/03/19 01:27:32;;;;;;;52.80;22.93;;;7.60;90.20;;;;;;5017919;28;21021;-47
2022/03/19 01:29:58;;;;;;;79.77;30.40;;;7.60;90.20;;;;;;5023330;28;20864;-47
2022/03/19 01:32:26;;;;;;;60.70;26.53;;;7.60;90.20;;;;;;5023457;28;20487;-48
2022/03/19 01:34:54;;;;;;;58.23;26.97;;;7.60;90.20;;;;;;5020080;28;20489;-47
2022/03/19 01:37:21;;;;;;;46.20;24.50;;;7.60;90.30;;;;;;5019093;28;20602;-47
2022/03/19 01:39:47;;;;;;;46.10;24.00;;;7.60;90.20;;;;;;5022695;28;20507;-49
2022/03/19 01:42:23;;;;;;;42.67;22.37;;;7.50;90.20;;;;;;5023027;28;20987;-48
2022/03/19 01:44:49;;;;;;;50.17;21.23;;;7.50;90.20;;;;;;5019104;28;21130;-48
2022/03/19 01:47:16;;;;;;;53.43;26.40;;;7.50;90.30;;;;;;5023035;28;20714;-48
2022/03/19 01:49:44;;;;;;;48.03;24.60;;;7.50;90.20;;;;;;5022541;28;20491;-48
2022/03/19 01:52:11;;;;;;;47.60;18.17;;;7.50;90.20;;;;;;5020628;28;21163;-47
2022/03/19 01:54:40;;;;;;;50.57;24.70;;;7.50;90.20;;;;;;5022522;28;20907;-48
2022/03/19 01:57:09;;;;;;;47.33;24.43;;;7.50;90.20;;;;;;5019803;28;20939;-48
2022/03/19 01:59:38;;;;;;;60.70;26.10;;;7.40;90.20;;;;;;5024669;28;20478;-48
2022/03/19 02:02:07;;;;;;;49.50;24.00;;;7.40;90.20;;;;;;5023139;28;20479;-48
2022/03/19 02:04:35;;;;;;;56.70;24.40;;;7.40;90.10;;;;;;5026943;28;21033;-48
2022/03/19 02:07:04;;;;;;;52.10;22.67;;;7.40;90.20;;;;;;5024916;28;20492;-48
2022/03/19 02:09:31;;;;;;;44.97;23.80;;;7.40;90.20;;;;;;5020937;28;20918;-47
2022/03/19 02:11:58;;;;;;;72.17;25.10;;;7.30;90.20;;;;;;5018415;28;21101;-47
2022/03/19 02:14:25;;;;;;;54.67;23.27;;;7.30;90.20;;;;;;5018753;28;20575;-48
2022/03/19 02:16:53;;;;;;;50.97;24.23;;;7.30;90.30;;;;;;5020395;28;20585;-48
2022/03/19 02:19:19;;;;;;;66.07;24.27;;;7.30;90.30;;;;;;5022373;28;20481;-48
2022/03/19 02:21:49;;;;;;;45.47;21.90;;;7.30;90.20;;;;;;5022838;28;20485;-49
2022/03/19 02:27:04;;;;;;;57.97;24.77;;;7.20;90.10;;;;;;5018353;28;20479;-48
2022/03/19 02:29:31;;;;;;;45.57;23.37;;;7.20;90.20;;;;;;5019109;28;20477;-48
2022/03/19 02:31:59;;;;;;;68.77;24.17;;;7.20;90.30;;;;;;5009687;28;20477;-48
2022/03/19 02:34:26;;;;;;;48.13;23.30;;;7.20;90.20;;;;;;5029275;28;20494;-49
2022/03/19 02:36:54;;;;;;;54.57;26.33;;;7.10;90.30;;;;;;5020868;28;20914;-49
2022/03/19 02:39:24;;;;;;;55.10;24.97;;;7.10;90.30;;;;;;5022607;28;20490;-48
2022/03/19 02:41:52;;;;;;;49.33;22.17;;;7.10;90.30;;;;;;5018808;28;20579;-49
2022/03/19 02:44:20;;;;;;;45.17;23.37;;;7.10;90.30;;;;;;5020984;28;20495;-48
2022/03/19 02:46:49;;;;;;;48.33;23.60;;;7.10;90.20;;;;;;5016108;28;20473;-48
2022/03/19 02:49:16;;;;;;;46.60;22.23;;;7.10;90.20;;;;;;5027887;28;20840;-48
2022/03/19 02:51:45;;;;;;;52.30;22.43;;;7.00;90.20;;;;;;5014391;28;20992;-48
2022/03/19 02:54:15;;;;;;;45.60;23.40;;;7.00;90.20;;;;;;5005643;28;20497;-47
2022/03/19 02:56:44;;;;;;;44.23;22.73;;;6.90;90.20;;;;;;5025069;28;20488;-48
2022/03/19 02:59:13;;;;;;;50.37;25.17;;;6.90;90.20;;;;;;5010925;28;20980;-47
2022/03/19 03:01:40;;;;;;;45.60;23.13;;;6.90;90.20;;;;;;5021724;28;20579;-47
2022/03/19 03:04:07;;;;;;;56.57;23.07;;;6.90;90.20;;;;;;5018799;28;20485;-48
2022/03/19 03:06:36;;;;;;;68.43;23.97;;;6.90;90.10;;;;;;5020202;28;20554;-48
2022/03/19 03:09:03;;;;;;;47.20;21.83;;;6.80;90.10;;;;;;5020153;28;20594;-48
2022/03/19 03:11:29;;;;;;;42.30;21.83;;;6.80;90.10;;;;;;5020729;28;21162;-48
2022/03/19 03:13:58;;;;;;;47.37;25.20;;;6.80;90.10;;;;;;5021600;28;20993;-48
2022/03/19 03:16:26;;;;;;;45.23;21.93;;;6.70;90.10;;;;;;5015482;28;20487;-48
2022/03/19 03:18:53;;;;;;;44.13;21.83;;;6.70;90.10;;;;;;5028686;28;20512;-49
2022/03/19 03:21:20;;;;;;;47.43;22.30;;;6.70;90.10;;;;;;5019562;28;21014;-48
2022/03/19 03:23:47;;;;;;;48.67;23.13;;;6.70;90.20;;;;;;5020362;28;20582;-50
2022/03/19 03:26:14;;;;;;;52.40;24.10;;;6.70;90.10;;;;;;5010331;28;20475;-48
2022/03/19 03:28:41;;;;;;;71.57;23.90;;;6.60;90.00;;;;;;5021398;28;20489;-48
2022/03/19 03:31:09;;;;;;;44.93;20.97;;;6.60;90.10;;;;;;5021640;28;20579;-48
2022/03/19 03:33:35;;;;;;;38.30;20.77;;;6.50;90.10;;;;;;5019068;28;20483;-48
2022/03/19 03:36:02;;;;;;;61.70;23.73;;;6.50;90.10;;;;;;5019663;28;20948;-48
2022/03/19 03:38:29;;;;;;;50.70;23.23;;;6.50;90.10;;;;;;5017517;28;20522;-49
2022/03/19 03:40:56;;;;;;;42.00;20.83;;;6.40;90.00;;;;;;5018057;28;20481;-48
2022/03/19 03:43:23;;;;;;;53.60;22.60;;;6.40;90.20;;;;;;5018864;28;20485;-48
2022/03/19 03:45:50;;;;;;;51.20;22.27;;;6.40;90.20;;;;;;5020011;28;20482;-48
2022/03/19 03:48:18;;;;;;;43.27;21.93;;;;;;;;;;5021476;28;20996;-48
2022/03/19 03:50:46;;;;;;;50.27;21.93;;;6.30;90.20;;;;;;5018907;28;20482;-48
2022/03/19 03:53:13;;;;;;;50.83;23.10;;;6.30;90.20;;;;;;5019552;28;20478;-48
2022/03/19 03:55:40;;;;;;;44.63;20.93;;;6.20;90.10;;;;;;5018540;28;20484;-48
2022/03/19 03:58:08;;;;;;;55.47;22.97;;;6.20;90.20;;;;;;5019850;28;22332;-48
2022/03/19 04:00:35;;;;;;;42.67;21.43;;;6.20;90.30;;;;;;5021255;28;20591;-48
2022/03/19 04:03:03;;;;;;;48.20;25.87;;;6.10;90.30;;;;;;5018177;28;20491;-48
2022/03/19 04:05:33;;;;;;;49.87;21.07;;;6.10;90.40;;;;;;5020347;28;20855;-48
2022/03/19 04:08:00;;;;;;;132.27;38.50;;;6.10;90.40;;;;;;5019174;28;20499;-48
2022/03/19 04:10:27;;;;;;;46.03;24.20;;;6.10;90.40;;;;;;5020990;28;20488;-49
2022/03/19 04:12:54;;;;;;;168.97;35.90;;;6.00;90.30;;;;;;5019520;28;20479;-48
2022/03/19 04:15:21;;;;;;;63.30;27.47;;;6.10;90.40;;;;;;5018854;28;20478;-47
2022/03/19 04:17:47;;;;;;;46.43;22.53;;;6.10;90.40;;;;;;5019356;28;20855;-48
2022/03/19 04:20:15;;;;;;;53.77;23.57;;;6.10;90.50;;;;;;5018646;28;20559;-48
2022/03/19 04:22:44;;;;;;;54.90;22.30;;;6.10;90.40;;;;;;4986125;28;20484;-47
2022/03/19 04:25:13;;;;;;;46.20;21.27;;;6.10;90.40;;;;;;5014689;28;20898;-48
2022/03/19 04:27:40;;;;;;;42.73;21.23;;;6.10;90.40;;;;;;5018182;28;20479;-48
2022/03/19 04:30:11;;;;;;;42.17;19.57;;;6.20;90.50;;;;;;5019641;28;20502;-47
2022/03/19 04:32:41;;;;;;;58.20;23.10;;;6.00;90.50;;;;;;5021431;28;20494;-47
2022/03/19 04:37:51;;;;;;;43.20;19.73;;;5.90;90.50;;;;;;5018373;28;20469;-46
2022/03/19 04:40:18;;;;;;;39.00;19.00;;;5.90;90.60;;;;;;5020984;28;20492;-48
2022/03/19 04:42:45;;;;;;;47.73;21.80;;;5.90;90.50;;;;;;5012718;28;20481;-48
2022/03/19 04:45:11;;;;;;;50.47;21.83;;;6.00;90.50;;;;;;5032342;28;20494;-47
2022/03/19 04:47:38;;;;;;;48.93;22.27;;;6.00;90.50;;;;;;5021652;28;20488;-47
2022/03/19 04:50:06;;;;;;;42.97;21.30;;;6.00;90.50;;;;;;5017608;28;20490;-48
2022/03/19 04:52:34;;;;;;;43.10;19.23;;;5.90;90.40;;;;;;5020260;28;20996;-47
2022/03/19 04:55:03;;;;;;;42.60;22.00;;;5.90;90.40;;;;;;5019266;28;20971;-47
2022/03/19 04:57:29;;;;;;;47.57;22.03;;;5.90;90.40;;;;;;5021588;28;20483;-52
2022/03/19 04:59:56;;;;;;;48.10;20.70;;;5.90;90.40;;;;;;5015278;28;20478;-47
2022/03/19 05:02:24;;;;;;;46.40;22.20;;;5.90;90.40;;;;;;5023285;28;20569;-47
2022/03/19 05:04:52;;;;;;;58.33;23.93;;;5.90;90.40;;;;;;4997801;28;20481;-47
2022/03/19 05:07:20;;;;;;;37.10;20.60;;;5.90;90.40;;;;;;5023729;28;20496;-48
2022/03/19 05:12:33;;;;;;;42.07;21.57;;;5.90;90.40;;;;;;5020649;28;20493;-48
2022/03/19 05:15:00;;;;;;;43.27;21.73;;;5.90;90.40;;;;;;5023907;28;20478;-48
2022/03/19 05:17:27;;;;;;;41.47;19.07;;;5.80;90.20;;;;;;5018100;28;20492;-47
2022/03/19 05:19:54;;;;;;;42.83;21.13;;;5.80;90.30;;;;;;5016285;28;20493;-47
2022/03/19 05:22:21;;;;;;;42.33;20.90;;;;;;;;;;5019560;28;21019;-48
2022/03/19 05:24:48;;;;;;;40.83;21.70;;;5.80;90.40;;;;;;5017839;28;20482;-48
2022/03/19 05:27:16;;;;;;;40.50;21.50;;;5.80;90.30;;;;;;5017852;28;20859;-48
2022/03/19 05:29:44;;;;;;;49.97;22.27;;;;;;;;;;5017979;28;20479;-47
2022/03/19 05:32:11;;;;;;;46.10;22.70;;;5.70;90.30;;;;;;5014757;28;20486;-47
2022/03/19 05:34:38;;;;;;;42.73;19.67;;;5.70;90.30;;;;;;5030816;28;20954;-48
2022/03/19 05:37:05;;;;;;;46.73;22.27;;;5.70;90.30;;;;;;5023780;28;20908;-47
2022/03/19 05:39:34;;;;;;;44.33;21.90;;;5.70;90.40;;;;;;5024073;28;20971;-47
2022/03/19 05:42:00;;;;;;;44.63;21.03;;;5.70;90.30;;;;;;5021529;28;20479;-48
2022/03/19 05:44:27;;;;;;;51.90;23.70;;;5.70;90.40;;;;;;5022441;28;20495;-48
2022/03/19 05:46:57;;;;;;;42.00;21.40;;;;;;;;;;5021931;28;21044;-48
2022/03/19 05:49:24;;;;;;;53.00;22.23;;;5.60;90.40;;;;;;5023876;28;20552;-47
2022/03/19 05:51:51;;;;;;;72.60;22.33;;;5.70;90.50;;;;;;5020964;28;20976;-47
2022/03/19 05:54:18;;;;;;;45.73;21.97;;;5.70;90.50;;;;;;5022711;28;20491;-48
2022/03/19 05:56:45;;;;;;;50.10;23.23;;;5.70;90.50;;;;;;5021498;28;21002;-48
2022/03/19 05:59:12;;;;;;;46.83;22.20;;;5.70;90.50;;;;;;5027364;28;20496;-48
2022/03/19 06:01:41;;;;;;;42.77;21.27;;;5.80;90.50;;;;;;5024072;28;20486;-47
2022/03/19 06:04:10;;;;;;;50.10;23.17;;;5.80;90.40;;;;;;5021245;28;20565;-48
2022/03/19 06:06:37;;;;;;;51.20;23.27;;;5.90;90.40;;;;;;5024118;28;20482;-47
2022/03/19 06:09:04;;;;;;;45.87;21.33;;;5.90;90.40;;;;;;5022860;28;20919;-48
2022/03/19 06:11:31;;;;;;;51.53;23.87;;;6.00;90.30;;;;;;5021952;28;20482;-47
2022/03/19 06:13:58;;;;;;;45.80;22.97;;;6.00;90.20;;;;;;5021632;28;20478;-48
2022/03/19 06:16:26;;;;;;;51.23;23.27;;;6.10;90.30;;;;;;5023117;28;20570;-47
2022/03/19 06:18:53;;;;;;;51.67;24.13;;;;;;;;;;5022733;28;20479;-47
2022/03/19 06:21:23;;;;;;;45.73;22.93;;;6.10;90.20;;;;;;5021178;28;20970;-47
2022/03/19 06:23:50;;;;;;;40.10;22.10;;;6.10;90.20;;;;;;5024642;28;20515;-47
2022/03/19 06:26:18;;;;;;;55.70;23.70;;;6.20;90.20;;;;;;5023767;28;20475;-48
2022/03/19 06:28:45;;;;;;;48.10;21.70;;;6.10;90.20;;;;;;5023151;28;21033;-48
2022/03/19 06:31:12;;;;;;;45.53;23.30;;;6.30;90.30;;;;;;5014924;28;20497;-47
2022/03/19 06:33:40;;;;;;;50.00;22.77;;;6.30;90.20;;;;;;5031563;28;20488;-51
2022/03/19 06:38:53;;;;;;;52.00;24.10;;;6.50;90.30;;;;;;5017012;28;20485;-48
2022/03/19 06:41:21;;;;;;;42.60;23.20;;;6.90;90.80;;;;;;5022234;28;20514;-48
2022/03/19 06:43:48;;;;;;;44.40;22.00;;;;;;;;;;5019776;28;21450;-52
2022/03/19 06:46:15;;;;;;;43.33;24.20;;;8.50;90.30;;;;;;5017608;28;20541;-48
2022/03/19 06:48:42;;;;;;;48.97;22.57;;;9.20;88.00;;;;;;5029402;28;20478;-47
2022/03/19 06:51:09;;;;;;;44.83;24.03;;;9.90;86.40;;;;;;5007746;28;20488;-48
2022/03/19 06:53:37;;;;;;;38.90;21.70;;;10.60;83.50;;;;;;5022377;28;20491;-47
2022/03/19 06:56:06;;;;;;;49.30;24.57;;;11.00;82.20;;;;;;5017981;28;20952;-48
2022/03/19 06:58:33;;;;;;;44.33;23.87;;;11.50;81.40;;;;;;5021737;28;20487;-47
2022/03/19 07:00:59;;;;;;;47.53;24.57;;;12.10;80.90;;;;;;5017627;28;20483;-47
2022/03/19 07:03:26;;;;;;;44.00;24.57;;;12.70;80.20;;;;;;5018358;28;20485;-48
2022/03/19 07:05:53;;;;;;;46.57;25.43;;;13.20;79.00;;;;;;5023846;28;20553;-48
2022/03/19 07:08:20;;;;;;;57.03;28.33;;;13.60;77.30;;;;;;5025071;28;20711;-48
2022/03/19 07:10:48;;;;;;;43.57;24.77;;;14.00;76.30;;;;;;5021201;28;20484;-48
2022/03/19 07:13:18;;;;;;;48.93;25.23;;;14.40;75.70;;;;;;5021786;28;20482;-48
2022/03/19 07:15:45;;;;;;;43.97;26.60;;;;;;;;;;5021745;28;20476;-48
2022/03/19 07:18:12;;;;;;;48.23;26.10;;;15.30;74.40;;;;;;5018777;28;20569;-48
2022/03/19 07:20:38;;;;;;;45.13;26.00;;;15.80;74.10;;;;;;5021151;28;20467;-48
2022/03/19 07:23:07;;;;;;;41.87;25.83;;;16.20;73.40;;;;;;5019453;28;20482;-48
2022/03/19 07:25:35;;;;;;;47.83;27.80;;;16.50;71.80;;;;;;5021729;28;20814;-48
2022/03/19 07:28:03;;;;;;;46.53;25.57;;;16.70;70.60;;;;;;5020455;28;20487;-48
2022/03/19 07:30:32;;;;;;;41.53;25.30;;;16.90;70.90;;;;;;5021154;28;20489;-48
2022/03/19 07:32:59;;;;;;;42.53;28.00;;;;;;;;;;5021657;28;21135;-48
2022/03/19 07:35:27;;;;;;;43.77;24.50;;;17.10;69.50;;;;;;5021773;28;20508;-48
2022/03/19 07:37:54;;;;;;;42.30;25.60;;;17.20;70.40;;;;;;5021366;28;20861;-48
2022/03/19 07:43:03;;;;;;;42.20;26.73;;;17.40;69.20;;;;;;5021571;28;20889;-47
2022/03/19 07:45:30;;;;;;;42.93;26.93;;;17.40;69.60;;;;;;5020099;28;20880;-48
2022/03/19 07:47:59;;;;;;;44.37;26.60;;;17.20;68.60;;;;;;5019095;28;21018;-49
2022/03/19 07:50:26;;;;;;;44.70;26.00;;;16.80;67.90;;;;;;5021356;28;20492;-48
2022/03/19 07:52:53;;;;;;;42.37;25.27;;;16.80;69.60;;;;;;5019452;28;20495;-49
2022/03/19 07:55:20;;;;;;;54.03;27.57;;;;;;;;;;5019658;28;20477;-48
2022/03/19 07:57:46;;;;;;;47.20;27.20;;;16.60;70.00;;;;;;5022229;28;20505;-47
2022/03/19 08:00:14;;;;;;;43.83;27.03;;;16.30;69.20;;;;;;5020642;28;20575;-48
2022/03/19 08:02:42;;;;;;;40.87;24.90;;;15.90;68.90;;;;;;5021391;28;20487;-48
2022/03/19 08:05:11;;;;;;;50.20;29.07;;;15.80;71.60;;;;;;5019674;28;20492;-48
2022/03/19 08:07:38;;;;;;;44.13;27.50;;;15.70;72.10;;;;;;5018411;28;20486;-48
2022/03/19 08:10:06;;;;;;;44.90;24.10;;;15.60;71.50;;;;;;5020149;28;20863;-49
2022/03/19 08:12:34;;;;;;;44.13;24.73;;;15.40;69.60;;;;;;5022041;28;20499;-48
2022/03/19 08:15:02;;;;;;;39.23;23.10;;;15.00;70.90;;;;;;5019110;28;20480;-48
2022/03/19 08:17:29;;;;;;;48.30;25.23;;;14.90;71.30;;;;;;5015896;28;20892;-48
2022/03/19 08:19:57;;;;;;;42.03;22.63;;;14.70;71.90;;;;;;5025480;28;20486;-49
2022/03/19 08:22:25;;;;;;;51.60;27.80;;;14.70;73.80;;;;;;5021040;28;20538;-49
2022/03/19 08:24:52;;;;;;;51.83;25.20;;;14.70;73.30;;;;;;5016381;28;20484;-49
2022/03/19 08:27:20;;;;;;;45.93;26.73;;;14.70;72.60;;;;;;5018726;28;20488;-49
2022/03/19 08:29:47;;;;;;;35.30;21.60;;;14.60;72.40;;;;;;5016813;28;21059;-49
2022/03/19 08:32:13;;;;;;;48.57;25.90;;;14.60;73.10;;;;;;5020462;28;20502;-49
2022/03/19 08:34:40;;;;;;;33.73;21.40;;;14.50;72.50;;;;;;5015387;28;20491;-49
2022/03/19 08:37:07;;;;;;;41.87;23.90;;;14.30;71.80;;;;;;5016045;28;20567;-50
2022/03/19 08:42:20;;;;;;;44.63;26.17;;;14.00;72.50;;;;;;5006451;28;20491;-50
2022/03/19 08:44:46;;;;;;;47.23;22.47;;;14.00;71.90;;;;;;5032517;28;20480;-49
2022/03/19 08:47:13;;;;;;;36.60;22.23;;;13.80;72.50;;;;;;5010817;28;20996;-48
2022/03/19 08:49:40;;;;;;;38.40;22.87;;;;;;;;;;5017838;28;20976;-48
2022/03/19 08:52:07;;;;;;;55.57;25.40;;;13.80;73.20;;;;;;5023782;28;21264;-48
2022/03/19 08:54:35;;;;;;;35.57;20.60;;;13.80;72.00;;;;;;5020020;28;20483;-48
2022/03/19 08:57:02;;;;;;;49.57;24.53;;;13.70;72.00;;;;;;5019999;28;20564;-48
2022/03/19 08:59:29;;;;;;;47.70;22.20;;;13.80;73.70;;;;;;5021346;28;20985;-48
2022/03/19 09:01:56;;;;;;;49.93;25.00;;;;;;;;;;5019973;28;20491;-49
2022/03/19 09:04:23;;;;;;;46.67;25.83;;;13.90;72.80;;;;;;5020405;28;20487;-48
2022/03/19 09:06:50;;;;;;;45.57;24.60;;;14.10;72.30;;;;;;5022020;28;20484;-49
2022/03/19 09:09:17;;;;;;;42.83;21.57;;;14.20;72.80;;;;;;5024758;28;21057;-49
2022/03/19 09:11:46;;;;;;;36.40;20.90;;;14.20;70.60;;;;;;5024697;28;20489;-48
2022/03/19 09:14:13;;;;;;;48.53;21.43;;;14.10;70.00;;;;;;5023945;28;20568;-49
2022/03/19 09:16:40;;;;;;;28.23;15.37;;;13.90;69.90;;;;;;5027746;28;20483;-47
2022/03/19 09:19:07;;;;;;;38.97;21.70;;;;;;;;;;5018187;28;21026;-48
2022/03/19 09:21:34;;;;;;;47.00;25.83;;;14.00;72.30;;;;;;5025091;28;20490;-49
2022/03/19 09:24:01;;;;;;;37.87;19.20;;;14.10;70.70;;;;;;5023263;28;20487;-46
2022/03/19 09:26:28;;;;;;;41.67;21.57;;;14.00;70.40;;;;;;5024307;28;20539;-46
2022/03/19 09:28:56;;;;;;;42.83;20.70;;;14.00;71.50;;;;;;5022882;28;20484;-46
2022/03/19 09:31:23;;;;;;;45.10;25.60;;;14.20;72.60;;;;;;5023380;28;20557;-46
2022/03/19 09:33:50;;;;;;;37.20;19.60;;;14.10;69.90;;;;;;5023475;28;20475;-46
2022/03/19 09:36:17;;;;;;;41.37;21.47;;;14.10;69.90;;;;;;5023289;28;20483;-47
2022/03/19 09:38:44;;;;;;;52.43;25.80;;;14.10;72.10;;;;;;5021829;28;20475;-47
2022/03/19 09:41:10;;;;;;;28.20;15.57;;;14.00;69.40;;;;;;5028460;28;20491;-45
2022/03/19 09:43:37;;;;;;;51.77;26.63;;;14.00;70.90;;;;;;5023811;28;20492;-46
2022/03/19 09:46:07;;;;;;;42.37;22.20;;;14.00;69.60;;;;;;5024256;28;20978;-47
2022/03/19 09:48:34;;;;;;;46.00;25.67;;;13.90;70.70;;;;;;5024284;28;20519;-47
2022/03/19 09:51:01;;;;;;;44.67;21.77;;;14.00;70.40;;;;;;5022159;28;20475;-47
2022/03/19 09:53:29;;;;;;;39.87;21.87;;;14.00;70.40;;;;;;5023045;28;20483;-47
2022/03/19 09:55:57;;;;;;;43.33;21.50;;;14.10;70.50;;;;;;5022445;28;21063;-47
2022/03/19 09:58:25;;;;;;;44.13;24.47;;;14.20;70.40;;;;;;5024301;28;20888;-47
2022/03/19 10:00:52;;;;;;;37.93;19.13;;;14.10;69.80;;;;;;5022718;28;20483;-46
2022/03/19 10:03:22;;;;;;;39.93;20.90;;;14.30;71.00;;;;;;5022813;28;20488;-47
2022/03/19 10:08:39;;;;;;;38.27;18.23;;;;;;;;;;5023807;28;21017;-48
2022/03/19 10:11:07;;;;;;;26.60;16.20;;;14.00;68.70;;;;;;5022665;28;20488;-48
2022/03/19 10:13:34;;;;;;;43.07;23.63;;;14.10;69.90;;;;;;5022929;28;21024;-48
2022/03/19 10:16:01;;;;;;;50.33;18.50;;;14.00;69.70;;;;;;5022670;28;20578;-48
2022/03/19 10:18:31;;;;;;;34.00;19.93;;;14.00;69.90;;;;;;5023603;28;20474;-48
2022/03/19 10:21:02;;;;;;;42.07;21.30;;;14.10;69.00;;;;;;5022447;28;20478;-49
2022/03/19 10:23:33;;;;;;;43.30;18.63;;;14.10;69.30;;;;;;5023070;28;20947;-46
2022/03/19 10:26:00;;;;;;;48.43;26.40;;;;;;;;;;5022399;28;20503;-48
2022/03/19 10:28:31;;;;;;;47.40;25.20;;;14.20;69.80;;;;;;5022725;28;20483;-47
2022/03/19 10:30:58;;;;;;;39.37;18.70;;;14.20;69.30;;;;;;5022850;28;20483;-48
2022/03/19 10:33:27;;;;;;;44.13;24.73;;;14.30;69.60;;;;;;5023218;28;20483;-48
2022/03/19 10:36:07;;;;;;;54.73;24.00;;;14.40;70.80;;;;;;5022034;28;21052;-46
2022/03/19 10:38:42;;;;;;;34.07;16.77;;;14.40;69.10;;;;;;5022811;28;20981;-47
2022/03/19 10:41:09;;;;;;;38.60;18.00;;;14.50;69.60;;;;;;5022867;28;21021;-47
2022/03/19 10:43:36;;;;;;;43.03;19.03;;;14.40;68.40;;;;;;5026781;28;20481;-45
2022/03/19 10:46:04;;;;;;;37.83;20.63;;;14.30;69.00;;;;;;5020732;28;20487;-47
2022/03/19 10:48:31;;;;;;;54.07;20.80;;;14.40;68.60;;;;;;5021508;28;20999;-46
2022/03/19 10:50:58;;;;;;;48.20;22.97;;;14.40;69.30;;;;;;5016942;28;20511;-49
2022/03/19 10:53:27;;;;;;;28.63;19.50;;;14.50;69.20;;;;;;5017767;28;21222;-47
2022/03/19 10:55:54;;;;;;;37.60;14.67;;;14.40;68.90;;;;;;5021828;28;20977;-47
2022/03/19 10:58:21;;;;;;;34.53;19.00;;;14.40;68.50;;;;;;5023053;28;21089;-48
2022/03/19 11:00:50;;;;;;;33.83;18.23;;;14.50;68.70;;;;;;5022208;28;20571;-48
2022/03/19 11:03:19;;;;;;;30.67;15.23;;;14.50;68.60;;;;;;5021626;28;20482;-56
2022/03/19 11:05:49;;;;;;;38.33;19.50;;;14.50;68.40;;;;;;5022641;28;20476;-48
2022/03/19 11:08:20;;;;;;;44.07;23.73;;;14.50;68.40;;;;;;5022944;28;20484;-48
2022/03/19 11:10:50;;;;;;;43.10;17.90;;;14.50;68.50;;;;;;5022630;28;20468;-48
2022/03/19 11:13:21;;;;;;;27.63;17.77;;;14.50;67.70;;;;;;5011741;28;20479;-48
2022/03/19 11:15:51;;;;;;;25.73;13.03;;;14.50;67.10;;;;;;5021176;28;20491;-48
2022/03/19 11:18:21;;;;;;;39.47;19.83;;;14.70;68.00;;;;;;5034181;28;21318;-52
2022/03/19 11:20:49;;;;;;;29.47;15.93;;;14.80;67.80;;;;;;5023382;28;21397;-47
2022/03/19 11:23:17;;;;;;;35.13;21.00;;;;;;;;;;5010321;28;20472;-48
2022/03/19 11:25:51;;;;;;;33.40;18.30;;;15.10;66.40;;;;;;5025186;28;20483;-48
2022/03/19 11:28:20;;;;;;;35.13;14.70;;;15.00;66.20;;;;;;5011552;28;20480;-55
2022/03/19 11:31:00;;;;;;;43.77;22.73;;;15.00;66.30;;;;;;5022992;28;20479;-49
2022/03/19 11:33:30;;;;;;;23.00;14.80;;;14.90;66.00;;;;;;5011030;28;20973;-48
2022/03/19 11:36:06;;;;;;;33.83;17.03;;;14.90;65.10;;;;;;5021213;28;21005;-50
2022/03/19 11:38:34;;;;;;;33.03;18.30;;;;;;;;;;5018887;28;20544;-45
2022/03/19 11:41:18;;;;;;;22.40;11.47;;;14.90;65.30;;;;;;5019522;28;20577;-47
2022/03/19 11:43:44;;;;;;;27.27;14.60;;;15.00;66.90;;;;;;5020824;28;20966;-47
2022/03/19 11:46:12;;;;;;;31.67;17.10;;;15.10;65.70;;;;;;5022006;28;20485;-47
2022/03/19 11:48:46;;;;;;;30.83;16.37;;;15.30;65.70;;;;;;5018881;28;20484;-47
2022/03/19 11:51:28;;;;;;;21.73;13.10;;;15.30;63.00;;;;;;5017200;28;20477;-46
2022/03/19 11:53:56;;;;;;;25.77;13.90;;;;;;;;;;5023674;28;21121;-48
2022/03/19 11:56:25;;;;;;;25.20;14.70;;;15.30;63.10;;;;;;5019757;28;20958;-48
2022/03/19 11:58:52;;;;;;;38.53;17.93;;;15.40;65.90;;;;;;5022792;28;20491;-47
2022/03/19 12:01:39;;;;;;;27.27;13.50;;;15.30;63.20;;;;;;5021950;28;20515;-50
2022/03/19 12:04:14;;;;;;;21.40;12.23;;;;;;;;;;5020004;28;20495;-47
2022/03/19 12:06:51;;;;;;;21.57;13.67;;;15.60;62.50;;;;;;5024740;28;20488;-47
2022/03/19 12:09:18;;;;;;;23.03;14.13;;;15.80;65.20;;;;;;5004177;28;20472;-47
2022/03/19 12:12:06;;;;;;;22.93;13.73;;;15.90;64.20;;;;;;5006144;28;20483;-47
2022/03/19 12:14:33;;;;;;;24.60;13.33;;;16.00;64.50;;;;;;5019569;28;21073;-47
2022/03/19 12:17:15;;;;;;;13.93;8.30;;;15.80;60.40;;;;;;5019793;28;20538;-46
2022/03/19 12:19:53;;;;;;;22.00;11.23;;;16.00;63.30;;;;;;5021671;28;21017;-47
2022/03/19 12:22:31;;;;;;;20.20;11.40;;;16.10;62.00;;;;;;5010230;28;20474;-47
2022/03/19 12:25:08;;;;;;;13.03;6.40;;;16.10;59.40;;;;;;5018613;28;20859;-46
2022/03/19 12:27:36;;;;;;;21.30;9.77;;;16.20;61.00;;;;;;5020811;28;21299;-47
2022/03/19 12:30:04;;;;;;;14.50;10.67;;;;;;;;;;5020560;28;20491;-47
2022/03/19 12:32:30;;;;;;;13.83;8.30;;;16.20;59.60;;;;;;5020808;28;20999;-48
2022/03/19 12:35:03;;;;;;;23.20;9.03;;;16.20;60.90;;;;;;5018908;28;20483;-47
2022/03/19 12:37:29;;;;;;;20.73;9.43;;;16.20;59.80;;;;;;5021236;28;20483;-47
2022/03/19 12:40:00;;;;;;;18.73;7.90;;;16.20;59.50;;;;;;5019435;28;20492;-47
2022/03/19 12:42:31;;;;;;;7.57;3.90;;;16.10;59.40;;;;;;5020368;28;20485;-47
2022/03/19 12:44:59;;;;;;;12.17;5.97;;;15.90;59.50;;;;;;5019360;28;20594;-48
2022/03/19 12:47:27;;;;;;;16.00;6.13;;;16.00;58.80;;;;;;5020170;28;20851;-47
2022/03/19 12:49:55;;;;;;;14.93;6.20;;;16.00;58.40;;;;;;5017071;28;20505;-48
2022/03/19 12:52:23;;;;;;;9.13;5.10;;;16.10;59.30;;;;;;5017521;28;20484;-51
2022/03/19 12:54:55;;;;;;;12.43;8.30;;;16.30;60.20;;;;;;5019938;28;20579;-47
2022/03/19 12:57:24;;;;;;;10.00;4.90;;;;;;;;;;5010647;28;21078;-47
2022/03/19 12:59:52;;;;;;;7.80;3.83;;;16.40;56.90;;;;;;5006536;28;20523;-48
2022/03/19 13:02:19;;;;;;;10.00;4.03;;;16.40;56.70;;;;;;5021103;28;20581;-47
2022/03/19 13:04:46;;;;;;;6.80;4.10;;;16.30;57.10;;;;;;5016115;28;20496;-48